createdAt,value
2023-05-13T00:01:07.019Z,19.67
2023-05-13T00:03:33.940Z,23.17
2023-05-13T00:06:01.378Z,22.95
2023-05-13T00:08:28.773Z,20.90
2023-05-13T00:10:55.969Z,22.77
2023-05-13T00:13:23.060Z,19.13
2023-05-13T00:15:49.992Z,21.98
2023-05-13T00:18:17.121Z,22.20
2023-05-13T00:20:45.240Z,22.63
2023-05-13T00:23:12.282Z,20.48
2023-05-13T00:25:42.024Z,21.13
2023-05-13T00:28:08.826Z,23.23
2023-05-13T00:30:35.677Z,20.92
2023-05-13T00:33:03.615Z,21.92
2023-05-13T00:35:30.749Z,24.67
2023-05-13T00:37:57.742Z,27.70
2023-05-13T00:40:25.618Z,21.42
2023-05-13T00:42:53.938Z,20.13
2023-05-13T00:45:20.941Z,23.00
2023-05-13T00:47:49.753Z,21.42
2023-05-13T00:50:16.959Z,18.27
2023-05-13T00:52:44.936Z,17.95
2023-05-13T00:55:12.169Z,23.48
2023-05-13T00:57:40.305Z,18.73
2023-05-13T01:00:08.005Z,21.67
2023-05-13T01:02:57.771Z,22.00
2023-05-13T01:05:52.043Z,19.13
2023-05-13T01:08:31.730Z,21.08
2023-05-13T01:11:04.015Z,26.52
2023-05-13T01:13:37.649Z,19.70
2023-05-13T01:16:10.919Z,18.38
2023-05-13T01:18:43.504Z,16.00
2023-05-13T01:21:12.274Z,16.70
2023-05-13T01:23:41.369Z,23.00
2023-05-13T01:26:08.124Z,19.40
2023-05-13T01:28:35.189Z,21.38
2023-05-13T01:31:02.038Z,20.13
2023-05-13T01:33:29.945Z,20.08
2023-05-13T01:35:56.955Z,20.05
2023-05-13T01:38:24.867Z,21.52
2023-05-13T01:40:51.706Z,18.33
2023-05-13T01:43:18.501Z,23.85
2023-05-13T01:45:45.422Z,19.92
2023-05-13T01:48:12.137Z,20.33
2023-05-13T01:50:38.902Z,21.38
2023-05-13T01:53:05.585Z,19.05
2023-05-13T01:55:32.384Z,23.73
2023-05-13T01:57:59.260Z,18.98
2023-05-13T02:00:25.902Z,19.45
2023-05-13T02:02:52.842Z,21.75
2023-05-13T02:05:19.679Z,18.73
2023-05-13T02:07:46.436Z,17.13
2023-05-13T02:10:13.408Z,19.15
2023-05-13T02:12:40.178Z,20.88
2023-05-13T02:15:07.278Z,19.27
2023-05-13T02:17:33.986Z,15.25
2023-05-13T02:20:01.017Z,18.95
2023-05-13T02:22:27.798Z,18.55
2023-05-13T02:24:54.574Z,17.30
2023-05-13T02:27:21.273Z,15.75
2023-05-13T02:29:47.951Z,18.40
2023-05-13T02:32:14.744Z,18.50
2023-05-13T02:34:41.816Z,16.00
2023-05-13T02:37:10.953Z,15.07
2023-05-13T02:39:38.111Z,15.13
2023-05-13T02:42:05.277Z,16.70
2023-05-13T02:44:32.211Z,18.00
2023-05-13T02:46:58.876Z,17.38
2023-05-13T02:49:25.728Z,19.48
2023-05-13T02:51:52.404Z,15.93
2023-05-13T02:54:19.079Z,16.52
2023-05-13T02:56:45.815Z,15.20
2023-05-13T02:59:12.563Z,19.90
2023-05-13T03:01:39.546Z,20.40
2023-05-13T03:04:06.346Z,18.08
2023-05-13T03:06:33.088Z,16.92
2023-05-13T03:08:59.961Z,17.42
2023-05-13T03:11:26.870Z,14.60
2023-05-13T03:13:53.601Z,16.98
2023-05-13T03:16:20.616Z,21.98
2023-05-13T03:18:47.485Z,18.50
2023-05-13T03:21:14.350Z,17.83
2023-05-13T03:23:41.308Z,16.95
2023-05-13T03:26:08.069Z,19.23
2023-05-13T03:28:34.780Z,15.90
2023-05-13T03:31:01.616Z,14.88
2023-05-13T03:33:29.893Z,17.60
2023-05-13T03:35:56.674Z,20.65
2023-05-13T03:38:23.419Z,18.70
2023-05-13T03:40:50.298Z,15.82
2023-05-13T03:43:17.072Z,17.58
2023-05-13T03:45:47.734Z,20.27
2023-05-13T03:48:16.637Z,19.77
2023-05-13T03:50:43.588Z,18.92
2023-05-13T03:53:11.377Z,19.77
2023-05-13T03:55:38.182Z,19.88
2023-05-13T03:58:14.247Z,18.42
2023-05-13T04:00:41.752Z,21.90
2023-05-13T04:03:10.566Z,18.75
2023-05-13T04:05:37.421Z,15.85
2023-05-13T04:08:04.388Z,18.25
2023-05-13T04:10:31.397Z,18.25
2023-05-13T04:12:58.420Z,21.08
2023-05-13T04:15:25.109Z,17.15
2023-05-13T04:17:52.622Z,17.70
2023-05-13T04:20:20.007Z,13.15
2023-05-13T04:22:47.997Z,18.17
2023-05-13T04:25:14.745Z,17.08
2023-05-13T04:27:41.516Z,14.70
2023-05-13T04:30:08.923Z,20.48
2023-05-13T04:32:35.726Z,18.60
2023-05-13T04:35:02.523Z,20.52
2023-05-13T04:37:29.358Z,17.85
2023-05-13T04:39:56.101Z,23.90
2023-05-13T04:42:22.806Z,16.75
2023-05-13T04:44:49.548Z,19.92
2023-05-13T04:47:16.241Z,18.35
2023-05-13T04:49:43.080Z,16.55
2023-05-13T04:52:12.936Z,17.05
2023-05-13T04:54:40.030Z,14.43
2023-05-13T04:57:06.991Z,17.75
2023-05-13T04:59:34.061Z,14.88
2023-05-13T05:02:00.920Z,16.75
2023-05-13T05:04:27.967Z,16.05
2023-05-13T05:06:54.660Z,15.07
2023-05-13T05:09:21.376Z,14.57
2023-05-13T05:11:50.333Z,17.33
2023-05-13T05:14:17.321Z,10.52
2023-05-13T05:16:44.270Z,14.20
2023-05-13T05:19:11.093Z,16.80
2023-05-13T05:21:38.119Z,16.08
2023-05-13T05:24:06.061Z,18.58
2023-05-13T05:26:35.670Z,13.70
2023-05-13T05:29:04.905Z,18.42
2023-05-13T05:31:31.786Z,13.35
2023-05-13T05:33:59.083Z,15.40
2023-05-13T05:36:25.966Z,10.40
2023-05-13T05:38:54.099Z,13.95
2023-05-13T05:41:21.653Z,11.23
2023-05-13T05:43:48.936Z,13.68
2023-05-13T05:46:16.485Z,14.63
2023-05-13T05:48:43.256Z,18.27
2023-05-13T05:51:10.074Z,12.48
2023-05-13T05:53:37.902Z,15.45
2023-05-13T05:56:05.048Z,12.13
2023-05-13T05:58:33.014Z,11.65
2023-05-13T06:01:00.749Z,15.40
2023-05-13T06:03:28.105Z,12.98
2023-05-13T06:05:55.044Z,17.48
2023-05-13T06:08:22.650Z,11.48
2023-05-13T06:10:49.795Z,11.13
2023-05-13T06:13:16.619Z,15.75
2023-05-13T06:15:43.451Z,12.50
2023-05-13T06:18:10.386Z,17.27
2023-05-13T06:20:37.045Z,15.00
2023-05-13T06:23:03.804Z,15.68
2023-05-13T06:25:30.615Z,11.85
2023-05-13T06:27:57.516Z,11.80
2023-05-13T06:30:24.346Z,12.60
2023-05-13T06:33:08.938Z,9.32
2023-05-13T06:35:39.050Z,8.65
2023-05-13T06:38:12.159Z,12.95
2023-05-13T06:40:39.952Z,9.25
2023-05-13T06:43:07.076Z,9.60
2023-05-13T06:45:33.810Z,8.85
2023-05-13T06:48:00.790Z,12.52
2023-05-13T06:50:30.078Z,12.40
2023-05-13T06:53:07.812Z,8.02
2023-05-13T06:55:41.609Z,10.30
2023-05-13T06:58:09.438Z,10.23
2023-05-13T07:00:43.441Z,9.63
2023-05-13T07:03:10.258Z,10.23
2023-05-13T07:05:42.677Z,7.47
2023-05-13T07:08:09.569Z,9.75
2023-05-13T07:10:37.054Z,10.32
2023-05-13T07:13:07.406Z,9.23
2023-05-13T07:18:00.980Z,11.05
2023-05-13T07:20:27.783Z,6.72
2023-05-13T07:22:54.633Z,8.60
2023-05-13T07:25:23.835Z,10.90
2023-05-13T07:27:50.964Z,8.00
2023-05-13T07:30:17.765Z,8.07
2023-05-13T07:32:53.234Z,8.07
2023-05-13T07:35:24.547Z,9.48
2023-05-13T07:37:59.001Z,7.20
2023-05-13T07:40:33.691Z,7.00
2023-05-13T07:43:00.883Z,7.13
2023-05-13T07:45:29.520Z,10.07
2023-05-13T07:47:56.826Z,12.07
2023-05-13T07:50:23.831Z,6.22
2023-05-13T07:52:51.850Z,8.05
2023-05-13T07:55:27.044Z,7.47
2023-05-13T07:57:53.881Z,7.10
2023-05-13T08:00:20.902Z,12.60
2023-05-13T08:02:47.928Z,10.75
2023-05-13T08:05:17.891Z,7.38
2023-05-13T08:07:44.591Z,7.63
2023-05-13T08:10:11.497Z,6.65
2023-05-13T08:12:42.879Z,7.43
2023-05-13T08:15:11.973Z,9.10
2023-05-13T08:17:40.131Z,5.85
2023-05-13T08:20:07.371Z,7.60
2023-05-13T08:22:34.584Z,7.13
2023-05-13T08:25:01.393Z,5.75
2023-05-13T08:27:28.073Z,6.07
2023-05-13T08:29:54.924Z,9.57
2023-05-13T08:32:24.218Z,11.57
2023-05-13T08:34:51.082Z,10.00
2023-05-13T08:37:17.885Z,9.35
2023-05-13T08:39:44.802Z,8.70
2023-05-13T08:42:11.929Z,6.70
2023-05-13T08:44:43.519Z,7.85
2023-05-13T08:47:18.458Z,8.90
2023-05-13T08:49:47.682Z,9.68
2023-05-13T08:52:14.446Z,5.95
2023-05-13T08:54:44.769Z,6.85
2023-05-13T08:57:11.610Z,10.75
2023-05-13T08:59:40.886Z,7.32
2023-05-13T09:02:10.612Z,9.20
2023-05-13T09:04:39.154Z,8.45
2023-05-13T09:07:06.207Z,10.25
2023-05-13T09:09:33.404Z,9.98
2023-05-13T09:12:00.164Z,9.45
2023-05-13T09:14:33.191Z,11.38
2023-05-13T09:17:01.936Z,12.43
2023-05-13T09:19:31.697Z,8.73
2023-05-13T09:21:58.913Z,6.82
2023-05-13T09:24:29.029Z,7.97
2023-05-13T09:29:29.423Z,13.43
2023-05-13T09:32:18.371Z,7.75
2023-05-13T09:34:51.412Z,5.50
2023-05-13T09:37:19.568Z,8.15
2023-05-13T09:39:54.585Z,10.95
2023-05-13T09:42:32.999Z,9.57
2023-05-13T09:45:06.927Z,11.65
2023-05-13T09:47:36.253Z,11.98
2023-05-13T09:50:04.030Z,9.60
2023-05-13T09:52:32.046Z,6.80
2023-05-13T09:55:00.030Z,6.80
2023-05-13T09:57:30.572Z,5.50
2023-05-13T10:00:05.176Z,8.40
2023-05-13T10:02:32.228Z,6.93
2023-05-13T10:04:59.371Z,13.15
2023-05-13T10:07:28.050Z,11.68
2023-05-13T10:10:00.900Z,10.40
2023-05-13T10:12:33.325Z,8.98
2023-05-13T10:15:02.864Z,16.38
2023-05-13T10:17:32.351Z,10.38
2023-05-13T10:20:00.285Z,10.43
2023-05-13T10:22:31.212Z,10.45
2023-05-13T10:25:00.007Z,10.02
2023-05-13T10:27:29.417Z,12.43
2023-05-13T10:29:57.648Z,9.38
2023-05-13T10:32:26.516Z,10.50
2023-05-13T10:35:15.568Z,14.05
2023-05-13T10:38:36.811Z,8.20
2023-05-13T10:41:26.861Z,11.70
2023-05-13T10:46:32.400Z,12.07
2023-05-13T10:51:48.250Z,12.70
2023-05-13T10:54:20.596Z,11.02
2023-05-13T10:56:57.694Z,16.10
2023-05-13T10:59:24.740Z,10.43
2023-05-13T11:01:53.997Z,9.38
2023-05-13T11:04:22.741Z,16.33
2023-05-13T11:06:52.166Z,8.48
2023-05-13T11:09:29.063Z,9.77
2023-05-13T11:12:01.621Z,10.07
2023-05-13T11:14:31.627Z,11.00
2023-05-13T11:17:04.728Z,7.97
2023-05-13T11:19:32.624Z,7.05
2023-05-13T11:22:10.634Z,6.72
2023-05-13T11:24:40.214Z,9.02
2023-05-13T11:27:21.292Z,10.65
2023-05-13T11:29:50.744Z,14.40
2023-05-13T11:32:53.305Z,12.13
2023-05-13T11:35:21.948Z,13.57
2023-05-13T11:37:49.296Z,10.30
2023-05-13T11:40:26.984Z,18.13
2023-05-13T11:42:54.367Z,13.32
2023-05-13T11:45:22.901Z,9.30
2023-05-13T11:47:50.350Z,11.18
2023-05-13T11:50:27.142Z,9.60
2023-05-13T11:52:55.591Z,9.70
2023-05-13T11:55:30.281Z,11.70
2023-05-13T11:57:57.874Z,9.68
2023-05-13T12:00:29.774Z,8.55
2023-05-13T12:02:57.577Z,8.52
2023-05-13T12:05:25.489Z,10.05
2023-05-13T12:07:55.983Z,8.25
2023-05-13T12:10:23.808Z,13.75
2023-05-13T12:12:50.675Z,10.32
2023-05-13T12:15:21.887Z,9.40
2023-05-13T12:17:49.767Z,12.00
2023-05-13T12:20:18.706Z,5.93
2023-05-13T12:22:45.429Z,7.80
2023-05-13T12:25:47.742Z,11.77
2023-05-13T12:28:24.934Z,7.15
2023-05-13T12:31:02.774Z,10.10
2023-05-13T12:33:40.608Z,8.02
2023-05-13T12:36:32.047Z,7.35
2023-05-13T12:39:11.977Z,7.75
2023-05-13T12:41:42.460Z,7.25
2023-05-13T12:44:13.408Z,7.38
2023-05-13T12:46:53.224Z,5.60
2023-05-13T12:49:20.281Z,9.25
2023-05-13T12:51:47.023Z,16.70
2023-05-13T12:54:13.762Z,9.40
2023-05-13T12:56:40.688Z,9.73
2023-05-13T12:59:08.818Z,11.45
2023-05-13T13:01:36.658Z,11.93
2023-05-13T13:04:03.617Z,8.98
2023-05-13T13:06:31.113Z,12.98
2023-05-13T13:09:00.489Z,12.68
2023-05-13T13:11:29.438Z,9.90
2023-05-13T13:13:56.352Z,13.05
2023-05-13T13:16:23.384Z,9.82
2023-05-13T13:18:54.159Z,10.73
2023-05-13T13:21:22.335Z,9.43
2023-05-13T13:23:49.189Z,7.22
2023-05-13T13:26:15.960Z,8.77
2023-05-13T13:28:42.633Z,10.85
2023-05-13T13:31:09.412Z,8.23
2023-05-13T13:33:36.114Z,11.75
2023-05-13T13:36:02.888Z,10.68
2023-05-13T13:38:29.614Z,15.40
2023-05-13T13:40:56.495Z,16.23
2023-05-13T13:43:23.421Z,15.77
2023-05-13T13:45:50.263Z,8.77
2023-05-13T13:48:16.945Z,11.18
2023-05-13T13:50:46.014Z,11.10
2023-05-13T13:53:14.136Z,8.23
2023-05-13T13:55:40.887Z,10.02
2023-05-13T13:58:07.554Z,17.52
2023-05-13T14:00:34.375Z,11.02
2023-05-13T14:03:02.619Z,14.70
2023-05-13T14:05:29.537Z,7.97
2023-05-13T14:07:56.552Z,9.02
2023-05-13T14:10:23.502Z,8.57
2023-05-13T14:12:50.430Z,10.63
2023-05-13T14:15:17.137Z,7.57
2023-05-13T14:17:43.988Z,7.63
2023-05-13T14:20:11.998Z,8.13
2023-05-13T14:22:38.825Z,15.48
2023-05-13T14:25:06.060Z,12.48
2023-05-13T14:27:36.347Z,12.80
2023-05-13T14:30:03.901Z,11.63
2023-05-13T14:32:30.719Z,11.38
2023-05-13T14:34:57.405Z,13.07
2023-05-13T14:37:24.263Z,9.05
2023-05-13T14:39:51.071Z,7.78
2023-05-13T14:42:18.169Z,8.85
2023-05-13T14:44:45.080Z,12.13
2023-05-13T14:47:11.889Z,10.25
2023-05-13T14:49:38.581Z,9.77
2023-05-13T14:52:05.473Z,10.00
2023-05-13T14:54:35.825Z,8.18
2023-05-13T14:57:07.205Z,12.02
2023-05-13T14:59:34.101Z,11.02
2023-05-13T15:02:04.110Z,10.18
2023-05-13T15:04:31.372Z,8.27
2023-05-13T15:06:58.501Z,14.68
2023-05-13T15:09:25.264Z,12.15
2023-05-13T15:11:52.007Z,16.60
2023-05-13T15:14:22.008Z,16.10
2023-05-13T15:16:48.729Z,16.98
2023-05-13T15:19:15.590Z,14.00
2023-05-13T15:21:42.389Z,7.43
2023-05-13T15:24:09.247Z,8.30
2023-05-13T15:26:36.166Z,11.82
2023-05-13T15:29:02.912Z,7.35
2023-05-13T15:31:31.719Z,9.10
2023-05-13T15:33:59.428Z,9.27
2023-05-13T15:36:26.297Z,23.85
2023-05-13T15:38:52.977Z,11.13
2023-05-13T15:41:19.649Z,7.30
2023-05-13T15:43:46.292Z,10.60
2023-05-13T15:46:13.055Z,8.70
2023-05-13T15:48:40.014Z,9.88
2023-05-13T15:51:06.920Z,7.88
2023-05-13T15:53:34.883Z,8.77
2023-05-13T15:56:01.553Z,6.35
2023-05-13T15:58:28.221Z,14.90
2023-05-13T16:00:54.879Z,10.85
2023-05-13T16:03:21.557Z,7.70
2023-05-13T16:05:48.262Z,9.35
2023-05-13T16:08:14.992Z,5.97
2023-05-13T16:10:41.956Z,10.52
2023-05-13T16:13:08.871Z,6.95
2023-05-13T16:15:35.612Z,9.77
2023-05-13T16:18:02.320Z,10.35
2023-05-13T16:20:29.178Z,11.65
2023-05-13T16:22:55.876Z,7.20
2023-05-13T16:25:24.290Z,9.75
2023-05-13T16:27:51.861Z,10.82
2023-05-13T16:30:18.567Z,11.05
2023-05-13T16:32:48.823Z,14.05
2023-05-13T16:35:15.569Z,12.18
2023-05-13T16:37:42.235Z,8.20
2023-05-13T16:40:09.576Z,13.52
2023-05-13T16:42:36.240Z,10.52
2023-05-13T16:45:03.138Z,8.68
2023-05-13T16:47:29.941Z,15.77
2023-05-13T16:49:57.394Z,11.27
2023-05-13T16:52:25.257Z,7.45
2023-05-13T16:54:52.566Z,8.43
2023-05-13T16:57:22.174Z,8.15
2023-05-13T16:59:48.978Z,10.43
2023-05-13T17:02:15.698Z,7.45
2023-05-13T17:04:42.388Z,10.43
2023-05-13T17:07:09.619Z,10.20
2023-05-13T17:09:36.423Z,11.23
2023-05-13T17:12:03.203Z,9.15
2023-05-13T17:14:29.870Z,10.38
2023-05-13T17:16:56.663Z,10.32
2023-05-13T17:19:23.356Z,13.02
2023-05-13T17:21:50.075Z,10.88
2023-05-13T17:24:16.834Z,9.43
2023-05-13T17:26:43.763Z,7.03
2023-05-13T17:29:10.541Z,11.55
2023-05-13T17:31:37.408Z,12.63
2023-05-13T17:34:04.274Z,13.65
2023-05-13T17:36:32.587Z,14.75
2023-05-13T17:38:59.392Z,12.95
2023-05-13T17:41:26.067Z,10.20
2023-05-13T17:43:53.776Z,8.05
2023-05-13T17:46:20.928Z,14.35
2023-05-13T17:48:47.616Z,17.00
2023-05-13T17:51:14.355Z,12.63
2023-05-13T17:53:41.076Z,16.38
2023-05-13T17:56:10.279Z,12.20
2023-05-13T17:58:37.287Z,18.15
2023-05-13T18:01:05.070Z,17.77
2023-05-13T18:03:32.017Z,19.15
2023-05-13T18:05:58.780Z,19.27
2023-05-13T18:08:25.534Z,21.42
2023-05-13T18:10:52.200Z,21.08
2023-05-13T18:13:18.920Z,18.17
2023-05-13T18:15:45.872Z,17.05
2023-05-13T18:18:13.362Z,17.30
2023-05-13T18:20:40.431Z,17.25
2023-05-13T18:23:07.320Z,19.92
2023-05-13T18:25:39.968Z,14.88
2023-05-13T18:28:12.368Z,17.88
2023-05-13T18:30:39.031Z,19.10
2023-05-13T18:33:06.185Z,20.13
2023-05-13T18:35:32.973Z,18.77
2023-05-13T18:37:59.701Z,13.55
2023-05-13T18:40:26.368Z,15.85
2023-05-13T18:42:53.065Z,19.30
2023-05-13T18:45:19.743Z,19.52
2023-05-13T18:47:46.457Z,15.88
2023-05-13T18:50:13.129Z,18.33
2023-05-13T18:52:40.500Z,18.83
2023-05-13T18:55:07.814Z,18.95
2023-05-13T18:57:34.512Z,17.73
2023-05-13T19:00:01.345Z,22.65
2023-05-13T19:02:28.290Z,23.48
2023-05-13T19:04:55.085Z,20.80
2023-05-13T19:07:21.850Z,18.98
2023-05-13T19:09:48.561Z,19.52
2023-05-13T19:12:15.342Z,21.67
2023-05-13T19:14:42.005Z,22.17
2023-05-13T19:17:08.797Z,24.13
2023-05-13T19:19:35.585Z,21.48
2023-05-13T19:22:02.424Z,22.30
2023-05-13T19:24:29.127Z,29.48
2023-05-13T19:26:55.817Z,24.77
2023-05-13T19:29:22.480Z,25.67
2023-05-13T19:31:49.239Z,26.95
2023-05-13T19:34:15.948Z,30.73
2023-05-13T19:36:44.467Z,30.40
2023-05-13T19:39:11.477Z,32.90
2023-05-13T19:41:38.841Z,34.30
2023-05-13T19:44:05.521Z,34.20
2023-05-13T19:46:32.357Z,43.30
2023-05-13T19:48:59.200Z,37.58
2023-05-13T19:51:26.761Z,38.15
2023-05-13T19:53:53.547Z,38.95
2023-05-13T19:56:21.108Z,36.47
2023-05-13T19:58:47.812Z,40.53
2023-05-13T20:01:14.976Z,39.40
2023-05-13T20:03:41.847Z,38.78
2023-05-13T20:06:08.775Z,40.03
2023-05-13T20:08:35.889Z,42.47
2023-05-13T20:11:02.687Z,40.75
2023-05-13T20:13:29.374Z,41.13
2023-05-13T20:15:56.018Z,39.65
2023-05-13T20:18:22.755Z,39.28
2023-05-13T20:20:49.776Z,40.17
2023-05-13T20:23:16.619Z,40.10
2023-05-13T20:25:43.440Z,46.92
2023-05-13T20:28:13.285Z,41.00
2023-05-13T20:30:43.257Z,44.60
2023-05-13T20:33:10.218Z,49.22
2023-05-13T20:35:37.155Z,51.92
2023-05-13T20:38:04.248Z,41.88
2023-05-13T20:40:31.596Z,43.97
2023-05-13T20:43:02.260Z,47.00
2023-05-13T20:45:30.823Z,44.58
2023-05-13T20:48:01.277Z,50.33
2023-05-13T20:52:57.507Z,46.83
2023-05-13T20:55:27.953Z,53.67
2023-05-13T21:00:26.700Z,49.47
2023-05-13T21:02:55.072Z,53.70
2023-05-13T21:05:22.311Z,51.72
2023-05-13T21:07:49.186Z,54.50
2023-05-13T21:10:16.106Z,51.65
2023-05-13T21:12:47.928Z,52.50
2023-05-13T21:15:15.239Z,52.03
2023-05-13T21:17:42.095Z,55.75
2023-05-13T21:20:13.959Z,54.20
2023-05-13T21:22:43.655Z,52.60
2023-05-13T21:25:13.167Z,47.03
2023-05-13T21:27:40.770Z,55.22
2023-05-13T21:30:11.858Z,45.75
2023-05-13T21:32:39.065Z,47.53
2023-05-13T21:35:06.490Z,45.40
2023-05-13T21:37:33.241Z,48.25
2023-05-13T21:40:01.018Z,45.28
2023-05-13T21:42:28.254Z,51.20
2023-05-13T21:45:01.032Z,47.67
2023-05-13T21:47:30.973Z,47.20
2023-05-13T21:50:00.205Z,46.28
2023-05-13T21:52:32.428Z,44.00
2023-05-13T21:55:01.121Z,50.88
2023-05-13T21:57:28.975Z,47.50
2023-05-13T21:59:56.321Z,49.13
2023-05-13T22:02:24.152Z,51.90
2023-05-13T22:04:57.231Z,48.78
2023-05-13T22:07:24.383Z,54.10
2023-05-13T22:09:51.238Z,47.65
2023-05-13T22:12:18.459Z,44.40
2023-05-13T22:14:45.542Z,43.55
2023-05-13T22:17:14.146Z,48.13
2023-05-13T22:19:41.196Z,43.67
2023-05-13T22:22:11.961Z,45.72
2023-05-13T22:24:41.390Z,45.58
2023-05-13T22:27:08.641Z,43.42
2023-05-13T22:29:36.112Z,47.38
2023-05-13T22:32:04.515Z,43.58
2023-05-13T22:34:35.477Z,50.63
2023-05-13T22:37:05.074Z,46.80
2023-05-13T22:39:31.975Z,46.03
2023-05-13T22:42:01.087Z,46.25
2023-05-13T22:44:28.239Z,48.30
2023-05-13T22:46:55.931Z,41.50
2023-05-13T22:49:23.114Z,45.08
2023-05-13T22:51:49.969Z,51.72
2023-05-13T22:54:16.988Z,48.22
2023-05-13T22:56:45.269Z,48.72
2023-05-13T22:59:12.325Z,48.95
2023-05-13T23:01:39.133Z,45.00
2023-05-13T23:04:07.528Z,47.83
2023-05-13T23:06:36.611Z,48.05
2023-05-13T23:09:05.273Z,46.55
2023-05-13T23:11:32.236Z,43.75
2023-05-13T23:13:59.140Z,47.45
2023-05-13T23:16:26.030Z,42.70
2023-05-13T23:19:02.284Z,45.72
2023-05-13T23:21:29.757Z,42.00
2023-05-13T23:23:57.817Z,45.13
2023-05-13T23:26:25.989Z,40.83
2023-05-13T23:28:52.747Z,40.25
2023-05-13T23:31:19.565Z,40.13
2023-05-13T23:33:47.933Z,39.30
2023-05-13T23:36:16.103Z,37.88
2023-05-13T23:38:43.000Z,39.15
2023-05-13T23:41:09.940Z,46.35
2023-05-13T23:43:36.578Z,38.33
2023-05-13T23:46:03.422Z,39.88
2023-05-13T23:48:31.809Z,41.55
2023-05-13T23:50:58.664Z,39.75
2023-05-13T23:53:25.648Z,40.75
2023-05-13T23:55:52.387Z,40.22
2023-05-13T23:58:19.409Z,39.55
